Time;durP1;ratioP1;P1;durP2;ratioP2;P2;SDS_P1;SDS_P2;PMS_P1;PMS_P2;Temp;Humidity;BMP_temperature;BMP_pressure;BME280_temperature;BME280_humidity;BME280_pressure;Samples;Min_cycle;Max_cycle;Signal;HPM_P1;HPM_P2
2021/06/13 00:01:36;;;;;;;6.90;5.78;;;17.80;86.40;;;;;;6153464;23;20008;-89
2021/06/13 00:04:02;;;;;;;8.90;5.70;;;17.80;86.70;;;;;;6158336;23;20016;-90
2021/06/13 00:06:28;;;;;;;7.57;5.45;;;17.70;86.80;;;;;;6152686;23;19998;-90
2021/06/13 00:08:54;;;;;;;6.43;5.10;;;17.70;87.00;;;;;;6151990;23;20013;-90
2021/06/13 00:11:21;;;;;;;9.93;5.90;;;17.70;87.10;;;;;;6152429;23;20490;-91
2021/06/13 00:13:49;;;;;;;6.55;5.07;;;17.70;87.40;;;;;;6152145;23;20029;-90
2021/06/13 00:16:15;;;;;;;5.47;4.65;;;17.60;87.40;;;;;;6153226;23;20002;-90
2021/06/13 00:18:40;;;;;;;6.72;4.82;;;17.60;87.50;;;;;;6152790;23;20028;-90
2021/06/13 00:21:06;;;;;;;5.22;4.65;;;17.60;87.70;;;;;;6152852;23;20005;-90
2021/06/13 00:23:32;;;;;;;6.70;4.80;;;17.50;87.80;;;;;;6152210;23;20302;-90
2021/06/13 00:25:58;;;;;;;5.55;4.55;;;17.50;88.00;;;;;;6152717;23;20005;-90
2021/06/13 00:28:23;;;;;;;5.07;4.35;;;17.50;88.10;;;;;;6153824;23;19994;-90
2021/06/13 00:30:49;;;;;;;4.97;4.43;;;17.50;88.30;;;;;;6152269;23;20307;-90
2021/06/13 00:33:15;;;;;;;7.07;4.90;;;17.40;88.40;;;;;;6152486;23;20006;-90
2021/06/13 00:35:41;;;;;;;5.85;4.75;;;17.40;88.60;;;;;;6153540;23;20453;-90
2021/06/13 00:38:07;;;;;;;8.02;4.57;;;17.40;88.70;;;;;;6152225;23;20036;-90
2021/06/13 00:40:33;;;;;;;6.82;4.93;;;17.40;88.80;;;;;;6153716;23;19994;-90
2021/06/13 00:43:00;;;;;;;6.43;4.55;;;17.30;88.90;;;;;;6151897;23;20025;-90
2021/06/13 00:45:27;;;;;;;6.10;5.07;;;17.30;89.10;;;;;;6152146;23;19997;-90
2021/06/13 00:47:53;;;;;;;8.65;4.43;;;17.30;89.20;;;;;;6152753;23;20020;-90
2021/06/13 00:50:28;;;;;;;6.38;4.93;;;17.30;89.50;;;;;;6152191;23;20037;-91
2021/06/13 00:52:54;;;;;;;6.78;4.72;;;17.20;89.50;;;;;;6153771;23;20005;-90
2021/06/13 00:55:20;;;;;;;7.30;4.90;;;17.20;89.60;;;;;;6152354;23;20036;-90
2021/06/13 00:57:46;;;;;;;8.45;5.07;;;17.20;89.80;;;;;;6152337;23;19998;-91
2021/06/13 01:00:12;;;;;;;6.43;4.72;;;17.20;89.90;;;;;;6152067;23;20006;-91
2021/06/13 01:02:38;;;;;;;5.63;4.53;;;17.20;90.00;;;;;;6152191;23;19997;-91
2021/06/13 01:05:05;;;;;;;6.18;4.85;;;17.10;90.00;;;;;;6152750;23;20001;-91
2021/06/13 01:08:08;;;;;;;5.57;4.68;;;17.10;90.00;;;;;;6152119;23;20077;-91
2021/06/13 01:10:43;;;;;;;5.43;4.10;;;17.10;90.00;;;;;;6153463;23;20401;-91
2021/06/13 01:13:28;;;;;;;4.65;4.05;;;17.10;90.00;;;;;;6151866;23;20021;-91
2021/06/13 01:16:13;;;;;;;6.38;4.85;;;17.00;90.00;;;;;;6153460;23;20056;-91
2021/06/13 01:18:45;;;;;;;5.82;4.80;;;17.00;90.10;;;;;;6152248;23;20063;-91
2021/06/13 01:21:18;;;;;;;5.70;5.10;;;17.00;90.30;;;;;;6152382;23;19998;-91
2021/06/13 01:24:16;;;;;;;6.47;5.13;;;17.00;90.30;;;;;;6151796;23;20006;-91
2021/06/13 01:26:57;;;;;;;7.82;4.55;;;17.00;90.30;;;;;;6151827;22;20002;-91
2021/06/13 01:29:30;;;;;;;6.32;4.70;;;16.90;90.20;;;;;;6151721;23;20032;-92
2021/06/13 01:31:58;;;;;;;5.85;4.50;;;16.90;90.30;;;;;;6156868;23;20032;-90
2021/06/13 01:34:27;;;;;;;5.00;4.30;;;16.90;90.40;;;;;;6173129;23;20039;-90
2021/06/13 01:36:53;;;;;;;6.20;4.70;;;16.80;90.40;;;;;;6172035;23;20053;-90
2021/06/13 01:39:24;;;;;;;6.85;4.68;;;16.80;90.50;;;;;;6173761;23;19998;-91
2021/06/13 01:41:51;;;;;;;4.47;3.95;;;16.80;90.50;;;;;;6164247;23;19998;-91
2021/06/13 01:44:19;;;;;;;4.60;4.03;;;16.80;90.50;;;;;;6152528;23;20318;-91
2021/06/13 01:46:48;;;;;;;5.35;3.97;;;16.80;90.60;;;;;;6152147;23;20002;-91
2021/06/13 01:49:16;;;;;;;6.40;4.55;;;16.80;90.60;;;;;;6151386;23;20002;-91
2021/06/13 01:51:43;;;;;;;5.95;4.72;;;16.80;90.70;;;;;;6151817;23;20004;-92
2021/06/13 01:54:10;;;;;;;4.88;4.38;;;16.80;90.70;;;;;;6151460;23;20032;-91
2021/06/13 01:56:39;;;;;;;7.07;4.22;;;16.80;90.70;;;;;;6152678;23;20309;-92
2021/06/13 01:59:06;;;;;;;6.00;3.80;;;16.80;90.70;;;;;;6153252;23;20002;-91
2021/06/13 02:01:32;;;;;;;8.32;4.20;;;16.80;90.70;;;;;;6154605;23;19998;-91
2021/06/13 02:04:00;;;;;;;5.82;4.43;;;16.80;90.70;;;;;;6153073;23;20051;-91
2021/06/13 02:06:36;;;;;;;5.93;4.60;;;16.80;90.80;;;;;;6152754;23;20002;-92
2021/06/13 02:09:05;;;;;;;7.93;4.90;;;16.80;90.70;;;;;;6153801;23;20009;-91
2021/06/13 02:11:33;;;;;;;5.68;4.35;;;16.80;90.80;;;;;;6152863;22;20020;-91
2021/06/13 02:14:00;;;;;;;7.25;5.03;;;16.80;90.80;;;;;;6152217;23;20017;-91
2021/06/13 02:16:26;;;;;;;5.25;4.68;;;16.80;90.80;;;;;;6152645;23;20439;-91
2021/06/13 02:18:55;;;;;;;7.97;4.78;;;16.80;90.80;;;;;;6152879;23;20088;-91
2021/06/13 02:21:21;;;;;;;4.70;3.95;;;16.90;90.80;;;;;;6152990;23;20063;-91
2021/06/13 02:23:47;;;;;;;6.15;4.85;;;16.90;90.80;;;;;;6152733;23;20379;-91
2021/06/13 02:26:14;;;;;;;6.72;4.70;;;16.90;90.80;;;;;;6153026;23;20009;-91
2021/06/13 02:28:44;;;;;;;6.50;4.88;;;16.90;90.80;;;;;;6152790;23;20063;-91
2021/06/13 02:31:10;;;;;;;7.53;4.75;;;16.90;90.80;;;;;;6152978;23;20021;-91
2021/06/13 02:33:42;;;;;;;7.45;4.70;;;17.00;90.80;;;;;;6153475;23;20010;-91
2021/06/13 02:36:09;;;;;;;6.53;5.28;;;17.00;90.80;;;;;;6153442;23;20023;-91
2021/06/13 02:38:35;;;;;;;5.05;4.53;;;17.00;90.80;;;;;;6154131;23;20029;-91
2021/06/13 02:41:00;;;;;;;4.47;4.05;;;17.00;90.80;;;;;;6152862;23;20009;-91
2021/06/13 02:43:26;;;;;;;4.82;4.28;;;17.10;90.80;;;;;;6153476;23;20010;-91
2021/06/13 02:45:52;;;;;;;7.72;5.07;;;17.10;90.70;;;;;;6153156;23;20439;-91
2021/06/13 02:48:18;;;;;;;6.22;4.70;;;17.20;90.70;;;;;;6153305;23;20005;-91
2021/06/13 02:50:46;;;;;;;5.18;4.65;;;17.20;90.70;;;;;;6152505;23;20009;-90
2021/06/13 02:53:15;;;;;;;6.13;4.50;;;17.20;90.60;;;;;;6152519;23;20033;-91
2021/06/13 02:56:12;;;;;;;5.35;4.85;;;17.30;90.60;;;;;;6152475;23;20036;-91
2021/06/13 02:59:09;;;;;;;6.70;4.63;;;17.30;90.50;;;;;;6154074;23;20005;-91
2021/06/13 03:01:37;;;;;;;4.43;3.97;;;17.40;90.50;;;;;;6152707;23;20002;-91
2021/06/13 03:04:03;;;;;;;6.05;3.78;;;17.40;90.40;;;;;;6152419;23;20009;-92
2021/06/13 03:06:31;;;;;;;5.28;4.13;;;17.50;90.30;;;;;;6152697;23;20037;-91
2021/06/13 03:08:57;;;;;;;5.72;4.68;;;17.50;90.20;;;;;;6152928;23;20005;-91
2021/06/13 03:11:24;;;;;;;5.22;4.47;;;17.60;90.20;;;;;;6152341;23;20021;-91
2021/06/13 03:13:51;;;;;;;6.53;4.63;;;17.60;90.20;;;;;;6153094;23;20022;-91
2021/06/13 03:16:18;;;;;;;5.53;4.32;;;17.70;90.10;;;;;;6172292;23;20004;-90
2021/06/13 03:18:47;;;;;;;6.53;3.90;;;17.80;90.00;;;;;;6173002;23;20012;-90
2021/06/13 03:21:14;;;;;;;4.80;3.67;;;17.80;89.80;;;;;;6169621;23;20002;-91
2021/06/13 03:23:41;;;;;;;4.22;3.78;;;17.90;89.60;;;;;;6170109;23;20075;-91
2021/06/13 03:26:09;;;;;;;5.43;4.20;;;18.00;89.40;;;;;;6154291;23;20021;-91
2021/06/13 03:28:36;;;;;;;4.20;3.50;;;18.10;89.10;;;;;;6153995;23;20012;-91
2021/06/13 03:31:03;;;;;;;4.47;3.85;;;18.20;88.80;;;;;;6153447;23;20079;-91
2021/06/13 03:33:30;;;;;;;5.22;4.15;;;18.30;88.60;;;;;;6152869;23;20009;-91
2021/06/13 03:35:57;;;;;;;4.60;3.95;;;18.30;88.20;;;;;;6153689;23;20001;-91
2021/06/13 03:38:25;;;;;;;4.40;3.92;;;18.40;88.00;;;;;;6152625;23;20489;-91
2021/06/13 03:40:52;;;;;;;4.32;3.85;;;18.50;87.70;;;;;;6152636;23;20009;-91
2021/06/13 03:43:19;;;;;;;4.45;3.80;;;18.60;87.40;;;;;;6152930;23;20025;-92
2021/06/13 03:45:47;;;;;;;4.70;3.63;;;18.60;87.20;;;;;;6152636;23;20006;-91
2021/06/13 03:48:14;;;;;;;4.85;3.95;;;18.70;86.90;;;;;;6153974;23;20005;-91
2021/06/13 03:50:43;;;;;;;4.40;3.92;;;18.80;86.70;;;;;;6152615;23;20002;-91
2021/06/13 03:53:09;;;;;;;5.35;4.32;;;18.90;86.40;;;;;;6152346;23;20425;-92
2021/06/13 03:55:35;;;;;;;8.90;4.10;;;19.00;86.00;;;;;;6152670;23;20062;-92
2021/06/13 03:58:02;;;;;;;5.20;3.72;;;19.10;85.80;;;;;;6152361;23;20337;-91
2021/06/13 04:00:32;;;;;;;4.50;3.88;;;19.20;85.50;;;;;;6152534;22;20417;-91
2021/06/13 04:02:59;;;;;;;4.90;3.70;;;19.30;85.20;;;;;;6153631;23;20006;-91
2021/06/13 04:05:26;;;;;;;4.65;3.85;;;19.40;85.10;;;;;;6152941;23;20051;-92
2021/06/13 04:07:51;;;;;;;5.60;3.75;;;19.40;84.70;;;;;;6152501;23;20033;-91
2021/06/13 04:10:18;;;;;;;4.32;3.80;;;19.50;84.50;;;;;;6152351;23;20020;-91
2021/06/13 04:12:49;;;;;;;5.32;3.70;;;19.70;84.20;;;;;;6152487;23;20337;-90
2021/06/13 04:15:17;;;;;;;5.15;3.88;;;19.80;83.60;;;;;;6152969;23;20093;-91
2021/06/13 04:17:43;;;;;;;5.10;3.85;;;19.90;83.20;;;;;;6154572;23;19997;-91
2021/06/13 04:20:12;;;;;;;4.45;3.78;;;20.00;82.80;;;;;;6152693;23;19998;-91
2021/06/13 04:22:41;;;;;;;4.32;3.92;;;20.10;82.50;;;;;;6152652;23;20021;-91
2021/06/13 04:25:14;;;;;;;4.53;4.03;;;20.10;81.90;;;;;;6152535;23;20413;-91
2021/06/13 04:27:42;;;;;;;3.80;3.30;;;20.20;81.40;;;;;;6152646;23;20017;-91
2021/06/13 04:30:09;;;;;;;4.25;3.65;;;20.30;81.10;;;;;;6153734;23;19998;-89
2021/06/13 04:32:35;;;;;;;4.10;3.28;;;20.40;80.90;;;;;;6160345;23;19998;-90
2021/06/13 04:35:01;;;;;;;4.82;4.32;;;20.50;80.50;;;;;;6160876;23;20017;-89
2021/06/13 04:37:26;;;;;;;6.43;4.57;;;20.60;79.90;;;;;;6166900;23;20367;-89
2021/06/13 04:39:52;;;;;;;4.88;4.15;;;20.70;79.40;;;;;;6153790;23;20002;-91
2021/06/13 04:42:19;;;;;;;4.75;3.78;;;20.70;79.30;;;;;;6152021;23;20325;-91
2021/06/13 04:44:46;;;;;;;4.43;3.72;;;20.80;79.30;;;;;;6153814;23;20420;-91
2021/06/13 04:47:11;;;;;;;4.25;3.58;;;20.90;79.00;;;;;;6152435;23;20028;-91
2021/06/13 04:49:38;;;;;;;4.43;4.00;;;21.00;78.70;;;;;;6152644;23;20421;-91
2021/06/13 04:52:06;;;;;;;4.95;4.10;;;21.10;78.40;;;;;;6153103;23;20073;-90
2021/06/13 04:54:51;;;;;;;5.30;4.22;;;21.20;77.90;;;;;;6152148;23;20416;-90
2021/06/13 04:58:06;;;;;;;4.30;3.80;;;21.20;77.70;;;;;;6127686;23;20044;-91
2021/06/13 05:00:31;;;;;;;4.60;3.85;;;21.40;77.00;;;;;;6128006;23;20005;-91
2021/06/13 05:02:57;;;;;;;6.38;3.90;;;21.40;77.00;;;;;;6152447;23;20494;-91
2021/06/13 05:05:23;;;;;;;6.53;5.40;;;21.50;76.70;;;;;;6155136;23;20008;-90
2021/06/13 05:07:49;;;;;;;8.43;5.68;;;21.60;76.40;;;;;;6165445;23;20001;-90
2021/06/13 05:10:15;;;;;;;6.68;4.85;;;21.70;75.70;;;;;;6173409;23;20032;-90
2021/06/13 05:12:46;;;;;;;8.40;5.90;;;21.70;75.60;;;;;;6169320;23;20022;-91
2021/06/13 05:15:13;;;;;;;7.03;5.15;;;21.80;75.30;;;;;;6166551;22;20093;-90
2021/06/13 05:17:38;;;;;;;9.77;5.90;;;21.90;75.40;;;;;;6162022;23;20001;-91
2021/06/13 05:20:04;;;;;;;6.88;5.68;;;22.00;75.20;;;;;;6151649;23;20036;-91
2021/06/13 05:22:30;;;;;;;8.25;5.35;;;22.10;75.60;;;;;;6151603;23;20437;-92
2021/06/13 05:24:56;;;;;;;7.05;4.43;;;22.30;75.10;;;;;;6151711;23;20009;-91
2021/06/13 05:27:22;;;;;;;5.15;4.07;;;22.40;74.90;;;;;;6151382;23;20321;-92
2021/06/13 05:29:48;;;;;;;5.88;4.18;;;22.50;74.60;;;;;;6151514;23;20002;-91
2021/06/13 05:32:13;;;;;;;4.10;3.70;;;22.60;73.90;;;;;;6153100;23;20033;-92
2021/06/13 05:34:39;;;;;;;3.60;3.30;;;22.70;73.30;;;;;;6152849;23;20100;-92
2021/06/13 05:37:04;;;;;;;3.22;2.92;;;22.80;73.40;;;;;;6153031;23;20006;-91
2021/06/13 05:39:30;;;;;;;6.18;3.40;;;22.80;73.20;;;;;;6152818;23;20432;-91
2021/06/13 05:41:56;;;;;;;5.28;3.72;;;23.00;72.90;;;;;;6152966;23;20008;-91
2021/06/13 05:44:22;;;;;;;4.05;3.65;;;23.00;72.30;;;;;;6152945;23;20074;-92
2021/06/13 05:46:47;;;;;;;4.55;3.45;;;23.20;72.40;;;;;;6153745;23;20384;-92
2021/06/13 05:49:13;;;;;;;4.25;3.58;;;23.30;72.30;;;;;;6153405;23;20405;-92
2021/06/13 05:51:39;;;;;;;5.38;3.70;;;23.30;71.90;;;;;;6153432;23;20001;-92
2021/06/13 05:54:05;;;;;;;3.80;3.42;;;23.40;71.40;;;;;;6153001;23;20005;-92
2021/06/13 05:56:34;;;;;;;4.57;4.10;;;23.50;71.30;;;;;;6152879;23;20092;-92
2021/06/13 05:58:59;;;;;;;4.45;3.65;;;23.60;71.00;;;;;;6153144;23;20002;-92
2021/06/13 06:01:25;;;;;;;4.20;3.30;;;23.70;70.70;;;;;;6151791;23;20027;-92
2021/06/13 06:03:51;;;;;;;3.85;3.38;;;23.80;70.20;;;;;;6152503;23;20006;-92
2021/06/13 06:06:17;;;;;;;4.20;3.80;;;23.90;69.80;;;;;;6152699;23;20010;-92
2021/06/13 06:08:42;;;;;;;3.92;3.53;;;23.90;69.50;;;;;;6153209;23;20009;-91
2021/06/13 06:11:09;;;;;;;4.57;3.25;;;24.00;69.50;;;;;;6153878;23;20098;-92
2021/06/13 06:13:34;;;;;;;4.07;3.67;;;24.10;69.30;;;;;;6154907;23;20009;-92
2021/06/13 06:16:00;;;;;;;3.95;3.55;;;24.20;68.90;;;;;;6153249;23;20443;-92
2021/06/13 06:18:26;;;;;;;3.78;3.38;;;24.30;68.60;;;;;;6153472;23;20089;-92
2021/06/13 06:20:52;;;;;;;3.67;3.38;;;24.30;68.30;;;;;;6153336;23;20006;-92
2021/06/13 06:23:18;;;;;;;4.07;3.67;;;24.40;68.60;;;;;;6155599;23;20461;-92
2021/06/13 06:25:43;;;;;;;3.80;3.50;;;24.40;67.60;;;;;;6154158;23;20091;-92
2021/06/13 06:28:09;;;;;;;7.70;3.85;;;24.50;67.50;;;;;;6154517;23;20032;-92
2021/06/13 06:30:37;;;;;;;4.57;3.70;;;24.60;66.90;;;;;;6154110;23;20027;-92
2021/06/13 06:33:03;;;;;;;4.18;3.78;;;24.60;66.90;;;;;;6153580;23;20009;-92
2021/06/13 06:35:29;;;;;;;3.75;3.30;;;24.60;66.80;;;;;;6153586;23;20081;-92
2021/06/13 06:37:55;;;;;;;5.68;3.97;;;24.70;66.50;;;;;;6153372;23;20005;-92
2021/06/13 06:40:22;;;;;;;3.88;3.58;;;24.70;66.30;;;;;;6153667;23;20055;-92
2021/06/13 06:42:47;;;;;;;4.78;3.78;;;24.80;66.00;;;;;;6152691;23;20433;-92
2021/06/13 06:45:14;;;;;;;6.88;3.78;;;24.90;65.70;;;;;;6154916;22;20024;-92
2021/06/13 06:47:41;;;;;;;4.85;3.90;;;24.90;65.50;;;;;;6153154;23;20093;-92
2021/06/13 06:50:09;;;;;;;4.35;3.95;;;25.00;65.30;;;;;;6154380;22;20028;-92
2021/06/13 06:52:35;;;;;;;3.50;3.20;;;25.10;65.20;;;;;;6155962;23;19998;-92
2021/06/13 06:55:01;;;;;;;5.30;3.40;;;25.10;64.60;;;;;;6153739;23;20013;-92
2021/06/13 06:57:27;;;;;;;4.80;3.60;;;25.20;64.30;;;;;;6154448;23;20009;-93
2021/06/13 06:59:54;;;;;;;4.97;3.10;;;25.20;63.90;;;;;;6153390;23;20006;-92
2021/06/13 07:02:19;;;;;;;5.22;3.95;;;25.20;63.70;;;;;;6153868;23;20394;-92
2021/06/13 07:04:45;;;;;;;3.53;3.22;;;25.30;63.50;;;;;;6154540;23;20069;-92
2021/06/13 07:07:11;;;;;;;3.67;3.20;;;25.40;63.10;;;;;;6154007;23;20088;-92
2021/06/13 07:09:37;;;;;;;3.42;3.13;;;25.40;63.00;;;;;;6153704;23;19998;-92
2021/06/13 07:12:04;;;;;;;3.60;3.30;;;25.50;62.80;;;;;;6153263;23;20439;-91
2021/06/13 07:14:29;;;;;;;4.32;3.78;;;25.60;62.50;;;;;;6155466;23;20383;-93
2021/06/13 07:16:55;;;;;;;4.05;3.60;;;25.70;61.50;;;;;;6160012;23;20010;-92
2021/06/13 07:19:21;;;;;;;5.75;3.45;;;25.70;61.50;;;;;;6160692;23;20024;-92
2021/06/13 07:21:47;;;;;;;4.07;3.42;;;25.70;61.70;;;;;;6158284;23;20010;-91
2021/06/13 07:24:13;;;;;;;4.05;3.58;;;25.80;61.40;;;;;;6160453;23;20010;-92
2021/06/13 07:26:39;;;;;;;3.05;2.75;;;25.90;61.20;;;;;;6158939;23;20088;-92
2021/06/13 07:29:05;;;;;;;3.85;3.45;;;26.00;60.90;;;;;;6155078;23;20033;-92
2021/06/13 07:31:31;;;;;;;3.85;3.42;;;26.10;60.00;;;;;;6154531;23;20496;-92
2021/06/13 07:33:56;;;;;;;3.60;3.30;;;26.20;59.60;;;;;;6154783;23;20418;-93
2021/06/13 07:36:22;;;;;;;3.42;3.13;;;26.30;59.10;;;;;;6154586;23;20005;-93
2021/06/13 07:38:48;;;;;;;3.60;3.30;;;26.30;58.90;;;;;;6154692;23;20012;-92
2021/06/13 07:41:14;;;;;;;3.90;3.50;;;26.40;59.10;;;;;;6153618;23;20012;-92
2021/06/13 07:43:40;;;;;;;3.65;3.03;;;26.50;58.90;;;;;;6153645;23;20037;-92
2021/06/13 07:46:06;;;;;;;4.15;3.15;;;26.70;58.80;;;;;;6152992;23;20005;-92
2021/06/13 07:48:31;;;;;;;3.58;3.28;;;26.80;58.30;;;;;;6153849;23;20092;-92
2021/06/13 07:50:57;;;;;;;3.40;2.80;;;26.90;57.40;;;;;;6153302;23;20084;-92
2021/06/13 07:53:23;;;;;;;3.35;3.05;;;26.90;57.30;;;;;;6152118;23;20010;-92
2021/06/13 07:55:49;;;;;;;3.78;3.47;;;27.00;57.40;;;;;;6152321;23;20012;-92
2021/06/13 07:58:14;;;;;;;3.50;3.03;;;27.20;57.10;;;;;;6153389;23;20056;-93
2021/06/13 08:00:41;;;;;;;3.30;2.92;;;27.40;56.40;;;;;;6153640;23;20045;-93
2021/06/13 08:03:07;;;;;;;4.72;3.10;;;27.50;55.70;;;;;;6152765;23;20031;-93
2021/06/13 08:05:34;;;;;;;3.10;2.80;;;27.60;54.90;;;;;;6152172;23;20008;-93
2021/06/13 08:08:05;;;;;;;3.97;3.58;;;27.60;54.50;;;;;;6152314;23;20001;-92
2021/06/13 08:10:31;;;;;;;3.25;2.88;;;27.60;54.50;;;;;;6152120;23;20020;-92
2021/06/13 08:12:57;;;;;;;3.90;3.00;;;27.70;54.10;;;;;;6151602;23;20092;-93
2021/06/13 08:15:24;;;;;;;3.00;2.80;;;27.80;53.50;;;;;;6152290;23;20374;-93
2021/06/13 08:17:50;;;;;;;2.85;2.63;;;27.90;52.90;;;;;;6151711;23;20005;-93
2021/06/13 08:20:17;;;;;;;3.28;2.97;;;27.90;52.50;;;;;;6152807;23;20044;-92
2021/06/13 08:22:43;;;;;;;3.00;2.80;;;27.80;52.40;;;;;;6152269;23;20417;-92
2021/06/13 08:25:10;;;;;;;4.65;3.17;;;27.70;52.20;;;;;;6151772;23;20006;-93
2021/06/13 08:27:37;;;;;;;3.10;2.80;;;27.60;52.50;;;;;;6150822;23;20485;-93
2021/06/13 08:30:08;;;;;;;3.40;3.10;;;27.40;52.60;;;;;;6149892;23;20005;-93
2021/06/13 08:32:34;;;;;;;2.70;2.50;;;27.40;52.30;;;;;;6150349;23;20005;-93
2021/06/13 08:35:00;;;;;;;3.08;2.80;;;27.40;52.40;;;;;;6150798;23;20001;-93
2021/06/13 08:37:26;;;;;;;3.55;3.25;;;27.30;52.60;;;;;;6152049;23;20009;-93
2021/06/13 08:39:52;;;;;;;3.35;3.05;;;27.20;52.30;;;;;;6151877;23;20298;-92
2021/06/13 08:42:19;;;;;;;3.58;2.97;;;27.10;52.40;;;;;;6152848;23;20006;-92
2021/06/13 08:44:45;;;;;;;3.60;3.15;;;26.90;53.50;;;;;;6152356;23;20020;-92
2021/06/13 08:47:14;;;;;;;2.90;2.60;;;26.80;53.90;;;;;;6152363;23;20009;-91
2021/06/13 08:49:41;;;;;;;2.67;2.47;;;26.60;54.40;;;;;;6152356;23;20161;-92
2021/06/13 08:52:08;;;;;;;3.10;2.80;;;26.40;54.90;;;;;;6152627;23;19997;-92
2021/06/13 08:54:34;;;;;;;3.15;2.85;;;26.30;55.60;;;;;;6152066;23;20010;-92
2021/06/13 08:57:00;;;;;;;3.03;2.72;;;26.00;56.20;;;;;;6152066;23;20392;-92
2021/06/13 08:59:25;;;;;;;2.70;2.33;;;25.70;56.30;;;;;;6153071;23;20325;-92
2021/06/13 09:01:51;;;;;;;2.97;2.67;;;25.40;56.50;;;;;;6153440;23;20002;-91
2021/06/13 09:04:17;;;;;;;4.22;2.75;;;25.20;57.30;;;;;;6152873;23;20009;-91
2021/06/13 09:06:42;;;;;;;2.55;2.13;;;25.00;57.80;;;;;;6152705;23;20063;-91
2021/06/13 09:09:22;;;;;;;3.20;2.13;;;24.70;58.00;;;;;;6153166;23;19998;-92
2021/06/13 09:12:01;;;;;;;2.88;2.67;;;24.60;58.00;;;;;;6153306;23;20055;-91
2021/06/13 09:14:28;;;;;;;2.83;2.63;;;24.40;58.10;;;;;;6152869;23;20017;-92
2021/06/13 09:16:55;;;;;;;2.40;2.20;;;24.30;58.10;;;;;;6153516;23;20002;-91
2021/06/13 09:19:21;;;;;;;2.53;2.33;;;24.20;58.50;;;;;;6153098;23;20013;-92
2021/06/13 09:21:47;;;;;;;3.03;2.58;;;24.20;58.50;;;;;;6152142;23;20058;-93
2021/06/13 09:24:17;;;;;;;2.60;2.40;;;24.30;58.70;;;;;;6153678;23;20452;-90
2021/06/13 09:26:44;;;;;;;2.75;2.55;;;24.30;59.00;;;;;;6159874;23;20032;-91
2021/06/13 09:32:07;;;;;;;4.50;3.60;;;24.60;59.40;;;;;;6164773;23;20013;-89
2021/06/13 09:34:33;;;;;;;8.05;4.05;;;24.70;59.10;;;;;;6164092;23;20014;-91
2021/06/13 09:40:10;;;;;;;13.63;6.03;;;24.90;59.00;;;;;;6154205;23;20082;-92
2021/06/13 09:42:37;;;;;;;12.75;5.65;;;24.90;58.90;;;;;;6152362;23;20371;-90
2021/06/13 09:45:17;;;;;;;8.13;4.25;;;24.80;59.30;;;;;;6152791;23;20333;-89
2021/06/13 09:47:42;;;;;;;7.43;4.20;;;24.70;59.70;;;;;;6152698;23;20010;-90
2021/06/13 09:50:08;;;;;;;10.93;4.32;;;24.60;59.70;;;;;;6153136;23;20310;-91
2021/06/13 09:52:37;;;;;;;6.15;3.38;;;24.60;60.30;;;;;;6155157;23;19995;-89
2021/06/13 09:55:11;;;;;;;3.45;3.00;;;24.70;60.70;;;;;;6153453;23;20013;-90
2021/06/13 09:58:03;;;;;;;3.65;3.03;;;24.90;60.50;;;;;;6152491;23;20009;-89
2021/06/13 10:00:29;;;;;;;3.70;2.60;;;25.10;59.60;;;;;;6152157;22;20066;-90
2021/06/13 10:02:55;;;;;;;4.15;2.70;;;25.20;59.30;;;;;;6152477;23;20078;-89
2021/06/13 10:05:21;;;;;;;2.78;2.45;;;25.30;58.70;;;;;;6151987;23;20432;-91
2021/06/13 10:07:47;;;;;;;2.15;1.95;;;25.40;58.30;;;;;;6151570;23;20001;-90
2021/06/13 10:10:12;;;;;;;3.00;2.30;;;25.40;58.10;;;;;;6152492;23;20002;-90
2021/06/13 10:12:55;;;;;;;4.88;2.60;;;25.50;58.10;;;;;;6151629;23;20017;-90
2021/06/13 10:15:34;;;;;;;4.85;3.00;;;25.60;57.90;;;;;;6152802;23;20021;-90
2021/06/13 10:18:11;;;;;;;5.00;3.53;;;25.70;58.20;;;;;;6155169;23;20002;-90
2021/06/13 10:20:39;;;;;;;5.72;3.75;;;25.80;58.40;;;;;;6153520;23;20008;-90
2021/06/13 10:23:05;;;;;;;7.65;4.13;;;25.80;58.80;;;;;;6153442;23;19994;-90
2021/06/13 10:25:31;;;;;;;7.20;4.75;;;25.80;59.40;;;;;;6152061;23;20009;-91
2021/06/13 10:27:58;;;;;;;5.90;4.35;;;25.90;59.50;;;;;;6151921;23;20299;-90
2021/06/13 10:30:40;;;;;;;5.55;3.80;;;26.10;59.90;;;;;;6151718;23;20420;-94
2021/06/13 10:33:07;;;;;;;8.43;4.20;;;26.40;60.00;;;;;;6152685;23;20432;-89
2021/06/13 10:35:33;;;;;;;3.97;2.95;;;26.70;59.70;;;;;;6152601;23;20316;-90
2021/06/13 10:38:00;;;;;;;4.93;3.38;;;26.90;58.70;;;;;;6151932;23;20008;-90
2021/06/13 10:40:36;;;;;;;5.47;3.47;;;27.10;58.00;;;;;;6127595;23;20085;-91
2021/06/13 10:43:03;;;;;;;3.08;2.75;;;27.30;57.40;;;;;;6153832;23;20010;-90
2021/06/13 10:45:34;;;;;;;2.60;2.40;;;27.40;56.30;;;;;;6151430;23;20340;-91
2021/06/13 10:48:09;;;;;;;2.60;2.40;;;27.50;54.50;;;;;;6152260;23;20088;-91
2021/06/13 10:50:38;;;;;;;2.50;2.30;;;27.50;54.50;;;;;;6151972;23;20009;-91
2021/06/13 10:53:07;;;;;;;2.72;2.47;;;27.50;53.00;;;;;;6128270;23;20016;-91
2021/06/13 10:55:53;;;;;;;3.05;2.33;;;27.40;53.20;;;;;;6128698;23;20009;-90
2021/06/13 11:02:10;;;;;;;2.70;2.50;;;27.20;53.30;;;;;;6215993;23;20059;-91
2021/06/13 11:04:55;;;;;;;2.67;2.47;;;27.20;53.40;;;;;;6160132;23;20058;-91
2021/06/13 11:07:34;;;;;;;3.78;2.60;;;27.20;53.50;;;;;;6154380;23;20045;-93
2021/06/13 11:10:32;;;;;;;2.72;2.50;;;27.30;54.00;;;;;;6152919;22;20012;-90
2021/06/13 11:13:22;;;;;;;4.38;2.42;;;27.40;53.80;;;;;;6152265;23;20013;-89
2021/06/13 11:15:52;;;;;;;2.30;2.15;;;27.50;54.40;;;;;;6138534;23;20006;-91
2021/06/13 11:18:40;;;;;;;2.40;2.20;;;27.60;54.20;;;;;;6166121;23;20019;-94
2021/06/13 11:21:25;;;;;;;4.00;2.60;;;27.70;53.80;;;;;;6172018;23;20005;-92
2021/06/13 11:23:55;;;;;;;3.42;3.13;;;27.70;53.20;;;;;;6149324;23;20020;-92
2021/06/13 11:26:35;;;;;;;3.38;2.67;;;27.60;52.20;;;;;;6173176;23;20021;-91
2021/06/13 11:29:11;;;;;;;3.78;2.88;;;27.30;52.70;;;;;;6169254;23;20013;-92
2021/06/13 11:31:52;;;;;;;3.28;2.97;;;27.20;52.70;;;;;;6168764;23;20032;-94
2021/06/13 11:35:02;;;;;;;4.68;3.75;;;27.00;52.50;;;;;;6132280;23;20045;-93
2021/06/13 11:37:40;;;;;;;;;;;;;;;;;;;;;
2021/06/13 11:40:28;;;;;;;4.53;4.13;;;26.00;55.20;;;;;;6159611;23;20037;-93
2021/06/13 11:43:57;;;;;;;;;;;;;;;;;;;;;
2021/06/13 11:47:40;;;;;;;;;;;;;;;;;;;;;
2021/06/13 11:50:42;;;;;;;;;;;;;;;;;;;;;
2021/06/13 12:20:22;;;;;;;1.73;1.58;;;22.30;66.80;;;;;;6124503;23;20102;-94
2021/06/13 12:23:56;;;;;;;2.83;1.48;;;22.00;66.10;;;;;;6108458;23;20017;-94
2021/06/13 12:29:39;;;;;;;2.28;1.90;;;21.80;67.80;;;;;;6128684;23;20016;-93
2021/06/13 12:50:33;;;;;;;;;;;;;;;;;;;;;
2021/06/13 13:20:20;;;;;;;5.45;3.17;;;21.80;72.70;;;;;;6176111;23;20010;-91
2021/06/13 13:22:58;;;;;;;3.33;2.80;;;21.70;73.60;;;;;;6149529;23;20008;-93
2021/06/13 13:26:13;;;;;;;4.78;3.13;;;21.50;73.40;;;;;;6218804;23;20035;-94
2021/06/13 13:33:06;;;;;;;2.78;2.53;;;21.10;74.90;;;;;;6263853;23;20417;-96
2021/06/13 13:47:06;;;;;;;3.53;3.22;;;20.50;77.90;;;;;;6205241;23;20025;-96
2021/06/13 13:50:11;;;;;;;4.30;3.17;;;20.40;78.50;;;;;;6226754;23;20020;-96
2021/06/13 13:55:44;;;;;;;;;;;;;;;;;;;;;
2021/06/13 13:58:30;;;;;;;5.20;3.70;;;20.20;79.60;;;;;;6227949;23;20082;-94
2021/06/13 14:01:21;;;;;;;5.95;4.03;;;20.10;80.30;;;;;;6232560;22;19993;-95
2021/06/13 14:05:13;;;;;;;7.75;4.28;;;20.10;80.90;;;;;;6205231;23;20040;-94
2021/06/13 14:07:39;;;;;;;11.50;5.00;;;20.10;81.00;;;;;;6207532;23;20013;-94
2021/06/13 14:10:13;;;;;;;5.90;4.45;;;20.10;81.30;;;;;;6194653;22;20009;-95
2021/06/13 14:13:16;;;;;;;5.28;4.43;;;20.10;82.10;;;;;;6214725;23;20065;-96
2021/06/13 14:16:36;;;;;;;8.18;4.55;;;20.00;82.20;;;;;;6198803;23;20016;-95
2021/06/13 14:22:43;;;;;;;4.43;3.47;;;20.00;83.10;;;;;;6174290;23;20173;-92
2021/06/13 14:25:11;;;;;;;5.97;3.90;;;20.00;82.20;;;;;;6232582;23;19996;-90
2021/06/13 14:27:40;;;;;;;5.97;4.00;;;20.00;82.40;;;;;;6223822;23;20034;-89
2021/06/13 14:30:11;;;;;;;4.15;3.53;;;20.00;82.60;;;;;;6167236;23;20005;-96
2021/06/13 14:53:27;;;;;;;7.03;5.47;;;19.40;87.00;;;;;;6161651;22;20989;-92
2021/06/13 14:56:26;;;;;;;6.50;5.10;;;19.30;86.90;;;;;;6111508;23;20066;-95
2021/06/13 14:58:55;;;;;;;9.32;5.25;;;19.30;88.90;;;;;;6135831;23;20001;-95
2021/06/13 15:01:27;;;;;;;8.55;5.55;;;19.30;87.10;;;;;;6166471;23;20025;-96
2021/06/13 15:03:58;;;;;;;7.35;4.50;;;19.30;87.30;;;;;;6166604;23;20009;-93
2021/06/13 15:06:27;;;;;;;7.53;4.70;;;19.30;87.10;;;;;;6148230;23;20592;-92
2021/06/13 15:15:21;;;;;;;6.35;3.63;;;19.30;87.50;;;;;;6202029;23;20025;-93
2021/06/13 15:17:55;;;;;;;6.07;3.80;;;19.30;87.80;;;;;;6163517;22;20013;-94
2021/06/13 15:20:21;;;;;;;5.15;3.90;;;19.30;87.40;;;;;;6157287;22;20009;-90
2021/06/13 15:22:48;;;;;;;4.90;3.83;;;19.30;87.60;;;;;;6182924;23;20009;-92
2021/06/13 15:25:16;;;;;;;4.90;3.45;;;19.30;87.70;;;;;;6181357;23;20009;-89
2021/06/13 15:27:45;;;;;;;3.85;3.47;;;19.30;87.70;;;;;;6130254;23;20013;-89